createdAt,value
2019-01-24T00:00:13.586Z,993.95
2019-01-24T00:01:13.578Z,993.97
2019-01-24T00:02:13.568Z,993.98
2019-01-24T00:03:13.551Z,993.98
2019-01-24T00:04:16.792Z,994.02
2019-01-24T00:05:13.521Z,994.03
2019-01-24T00:06:13.504Z,994.01
2019-01-24T00:07:13.492Z,993.99
2019-01-24T00:08:13.478Z,994.01
2019-01-24T00:09:13.459Z,994.04
2019-01-24T00:10:13.460Z,994.05
2019-01-24T00:11:13.433Z,994.05
2019-01-24T00:12:13.428Z,994.09
2019-01-24T00:13:13.400Z,994.06
2019-01-24T00:14:13.399Z,994.08
2019-01-24T00:15:13.394Z,994.10
2019-01-24T00:16:13.376Z,994.09
2019-01-24T00:17:13.355Z,994.14
2019-01-24T00:18:13.365Z,994.14
2019-01-24T00:19:13.337Z,994.19
2019-01-24T00:20:13.323Z,994.18
2019-01-24T00:21:13.291Z,994.19
2019-01-24T00:22:13.279Z,994.17
2019-01-24T00:23:13.268Z,994.18
2019-01-24T00:24:13.257Z,994.24
2019-01-24T00:25:13.256Z,994.23
2019-01-24T00:26:13.231Z,994.25
2019-01-24T00:27:13.219Z,994.22
2019-01-24T00:28:13.190Z,994.21
2019-01-24T00:29:13.187Z,994.27
2019-01-24T00:30:13.176Z,994.29
2019-01-24T00:31:13.158Z,994.29
2019-01-24T00:32:13.177Z,994.26
2019-01-24T00:33:13.133Z,994.30
2019-01-24T00:34:13.134Z,994.30
2019-01-24T00:35:13.103Z,994.35
2019-01-24T00:36:13.084Z,994.38
2019-01-24T00:37:13.074Z,994.33
2019-01-24T00:38:13.052Z,994.38
2019-01-24T00:39:13.051Z,994.38
2019-01-24T00:40:13.047Z,994.45
2019-01-24T00:41:13.028Z,994.43
2019-01-24T00:42:13.014Z,994.43
2019-01-24T00:43:12.992Z,994.39
2019-01-24T00:44:12.971Z,994.46
2019-01-24T00:45:12.970Z,994.45
2019-01-24T00:46:12.949Z,994.42
2019-01-24T00:47:12.960Z,994.48
2019-01-24T00:48:12.922Z,994.46
2019-01-24T00:49:12.907Z,994.49
2019-01-24T00:50:12.887Z,994.52
2019-01-24T00:51:12.891Z,994.52
2019-01-24T00:52:12.865Z,994.51
2019-01-24T00:53:12.863Z,994.57
2019-01-24T00:54:12.846Z,994.52
2019-01-24T00:55:12.826Z,994.57
2019-01-24T00:56:12.810Z,994.59
2019-01-24T00:57:12.815Z,994.57
2019-01-24T00:58:12.774Z,994.58
2019-01-24T00:59:12.784Z,994.65
2019-01-24T01:00:12.789Z,994.66
2019-01-24T01:01:12.740Z,994.66
2019-01-24T01:02:12.739Z,994.68
2019-01-24T01:03:12.769Z,994.72
2019-01-24T01:04:12.690Z,994.74
2019-01-24T01:05:12.730Z,994.75
2019-01-24T01:06:12.666Z,994.79
2019-01-24T01:07:12.673Z,994.74
2019-01-24T01:08:12.639Z,994.77
2019-01-24T01:09:12.622Z,994.79
2019-01-24T01:10:12.624Z,994.76
2019-01-24T01:11:12.599Z,994.84
2019-01-24T01:12:12.605Z,994.85
2019-01-24T01:13:12.576Z,994.86
2019-01-24T01:14:12.582Z,994.85
2019-01-24T01:15:12.534Z,994.84
2019-01-24T01:16:12.534Z,994.89
2019-01-24T01:17:13.401Z,994.89
2019-01-24T01:18:12.507Z,994.93
2019-01-24T01:19:12.504Z,994.98
2019-01-24T01:20:12.482Z,994.98
2019-01-24T01:21:12.467Z,995.01
2019-01-24T01:22:12.461Z,995.02
2019-01-24T01:23:12.446Z,995.04
2019-01-24T01:24:12.427Z,995.04
2019-01-24T01:25:12.403Z,995.06
2019-01-24T01:26:12.394Z,995.06
2019-01-24T01:27:12.392Z,995.09
2019-01-24T01:28:12.363Z,995.07
2019-01-24T01:29:12.354Z,995.08
2019-01-24T01:30:12.343Z,995.09
2019-01-24T01:31:12.340Z,995.09
2019-01-24T01:32:12.315Z,995.09
2019-01-24T01:33:12.312Z,995.12
2019-01-24T01:34:12.282Z,995.09
2019-01-24T01:35:12.268Z,995.13
2019-01-24T01:36:12.258Z,995.15
2019-01-24T01:37:12.242Z,995.19
2019-01-24T01:38:12.232Z,995.20
2019-01-24T01:39:12.218Z,995.19
2019-01-24T01:40:12.191Z,995.20
2019-01-24T01:41:12.970Z,995.23
2019-01-24T01:42:12.176Z,995.19
2019-01-24T01:43:12.162Z,995.20
2019-01-24T01:44:12.167Z,995.25
2019-01-24T01:45:12.121Z,995.27
2019-01-24T01:46:12.112Z,995.26
2019-01-24T01:47:12.103Z,995.25
2019-01-24T01:48:12.085Z,995.28
2019-01-24T01:49:12.098Z,995.29
2019-01-24T01:50:12.084Z,995.27
2019-01-24T01:51:12.041Z,995.27
2019-01-24T01:52:12.032Z,995.36
2019-01-24T01:53:12.020Z,995.31
2019-01-24T01:54:11.997Z,995.34
2019-01-24T01:55:11.985Z,995.33
2019-01-24T01:56:11.976Z,995.35
2019-01-24T01:57:11.957Z,995.35
2019-01-24T01:58:11.944Z,995.36
2019-01-24T01:59:11.942Z,995.31
2019-01-24T02:00:11.909Z,995.36
2019-01-24T02:01:11.901Z,995.36
2019-01-24T02:02:11.880Z,995.36
2019-01-24T02:03:11.880Z,995.34
2019-01-24T02:04:11.872Z,995.35
2019-01-24T02:05:11.853Z,995.36
2019-01-24T02:06:11.840Z,995.33
2019-01-24T02:07:11.817Z,995.31
2019-01-24T02:08:11.800Z,995.29
2019-01-24T02:09:11.788Z,995.30
2019-01-24T02:10:11.773Z,995.31
2019-01-24T02:11:11.780Z,995.32
2019-01-24T02:12:11.748Z,995.31
2019-01-24T02:13:11.725Z,995.32
2019-01-24T02:14:12.725Z,995.32
2019-01-24T02:15:11.700Z,995.34
2019-01-24T02:16:11.695Z,995.40
2019-01-24T02:17:11.688Z,995.33
2019-01-24T02:18:11.666Z,995.35
2019-01-24T02:19:11.645Z,995.41
2019-01-24T02:20:11.633Z,995.38
2019-01-24T02:21:11.631Z,995.35
2019-01-24T02:22:11.617Z,995.36
2019-01-24T02:23:11.633Z,995.40
2019-01-24T02:24:11.571Z,995.38
2019-01-24T02:25:11.564Z,995.42
2019-01-24T02:26:11.540Z,995.43
2019-01-24T02:27:11.557Z,995.45
2019-01-24T02:28:11.519Z,995.54
2019-01-24T02:29:11.510Z,995.50
2019-01-24T02:30:11.505Z,995.51
2019-01-24T02:31:11.476Z,995.50
2019-01-24T02:32:11.476Z,995.55
2019-01-24T02:33:11.453Z,995.58
2019-01-24T02:34:11.432Z,995.56
2019-01-24T02:35:11.429Z,995.57
2019-01-24T02:36:11.415Z,995.57
2019-01-24T02:37:11.396Z,995.56
2019-01-24T02:38:11.390Z,995.52
2019-01-24T02:39:11.373Z,995.57
2019-01-24T02:40:11.355Z,995.61
2019-01-24T02:41:11.339Z,995.63
2019-01-24T02:42:11.332Z,995.60
2019-01-24T02:43:11.323Z,995.60
2019-01-24T02:44:11.300Z,995.66
2019-01-24T02:45:11.987Z,995.67
2019-01-24T02:46:11.266Z,995.63
2019-01-24T02:47:11.273Z,995.66
2019-01-24T02:48:11.254Z,995.67
2019-01-24T02:49:11.231Z,995.64
2019-01-24T02:50:11.214Z,995.68
2019-01-24T02:51:11.205Z,995.68
2019-01-24T02:52:11.191Z,995.71
2019-01-24T02:53:11.171Z,995.70
2019-01-24T02:54:11.164Z,995.72
2019-01-24T02:55:11.159Z,995.70
2019-01-24T02:56:11.125Z,995.73
2019-01-24T02:57:11.120Z,995.72
2019-01-24T02:58:11.104Z,995.73
2019-01-24T02:59:11.089Z,995.77
2019-01-24T03:00:11.071Z,995.76
2019-01-24T03:01:11.068Z,995.77
2019-01-24T03:02:11.056Z,995.79
2019-01-24T03:03:11.028Z,995.80
2019-01-24T03:04:11.027Z,995.82
2019-01-24T03:05:11.007Z,995.83
2019-01-24T03:06:10.996Z,995.81
2019-01-24T03:07:10.986Z,995.83
2019-01-24T03:08:10.975Z,995.86
2019-01-24T03:09:10.957Z,995.87
2019-01-24T03:10:10.943Z,995.86
2019-01-24T03:11:10.919Z,995.86
2019-01-24T03:12:10.911Z,995.82
2019-01-24T03:13:10.898Z,995.79
2019-01-24T03:14:10.899Z,995.81
2019-01-24T03:15:10.873Z,995.80
2019-01-24T03:16:10.871Z,995.77
2019-01-24T03:17:10.848Z,995.81
2019-01-24T03:18:10.823Z,995.82
2019-01-24T03:19:10.815Z,995.80
2019-01-24T03:20:10.800Z,995.84
2019-01-24T03:21:10.786Z,995.82
2019-01-24T03:22:10.771Z,995.81
2019-01-24T03:23:10.747Z,995.82
2019-01-24T03:24:10.746Z,995.79
2019-01-24T03:25:10.733Z,995.80
2019-01-24T03:26:10.719Z,995.78
2019-01-24T03:27:10.693Z,995.79
2019-01-24T03:28:10.677Z,995.80
2019-01-24T03:29:10.685Z,995.84
2019-01-24T03:30:10.669Z,995.82
2019-01-24T03:31:11.495Z,995.87
2019-01-24T03:32:10.635Z,995.90
2019-01-24T03:33:10.671Z,995.89
2019-01-24T03:34:10.592Z,995.88
2019-01-24T03:35:10.582Z,995.85
2019-01-24T03:36:10.581Z,995.86
2019-01-24T03:37:10.557Z,995.84
2019-01-24T03:38:10.550Z,995.87
2019-01-24T03:39:10.537Z,995.87
2019-01-24T03:40:10.504Z,995.92
2019-01-24T03:41:10.524Z,995.94
2019-01-24T03:42:10.494Z,995.88
2019-01-24T03:43:10.473Z,995.92
2019-01-24T03:44:10.464Z,995.92
2019-01-24T03:45:10.440Z,995.90
2019-01-24T03:46:10.424Z,995.95
2019-01-24T03:47:10.425Z,995.93
2019-01-24T03:48:10.427Z,995.94
2019-01-24T03:49:10.400Z,995.97
2019-01-24T03:50:10.415Z,995.96
2019-01-24T03:51:10.357Z,995.94
2019-01-24T03:52:10.387Z,995.97
2019-01-24T03:53:10.329Z,995.95
2019-01-24T03:54:10.337Z,995.99
2019-01-24T03:55:10.297Z,995.96
2019-01-24T03:56:10.290Z,996.01
2019-01-24T03:57:10.269Z,996.01
2019-01-24T03:58:10.257Z,995.99
2019-01-24T03:59:10.242Z,995.98
2019-01-24T04:00:10.235Z,995.97
2019-01-24T04:01:10.217Z,995.97
2019-01-24T04:02:10.993Z,995.97
2019-01-24T04:03:10.175Z,995.98
2019-01-24T04:04:10.175Z,996.00
2019-01-24T04:05:11.964Z,996.01
2019-01-24T04:06:10.144Z,995.98
2019-01-24T04:07:10.124Z,996.00
2019-01-24T04:08:10.118Z,996.03
2019-01-24T04:09:10.103Z,996.02
2019-01-24T04:10:10.093Z,996.05
2019-01-24T04:11:10.077Z,996.06
2019-01-24T04:12:10.071Z,996.05
2019-01-24T04:13:10.102Z,996.04
2019-01-24T04:14:10.029Z,996.03
2019-01-24T04:15:10.014Z,996.06
2019-01-24T04:16:10.012Z,996.08
2019-01-24T04:17:09.991Z,996.08
2019-01-24T04:18:09.973Z,996.09
2019-01-24T04:19:09.960Z,996.12
2019-01-24T04:20:09.941Z,996.11
2019-01-24T04:21:09.929Z,996.13
2019-01-24T04:22:09.919Z,996.13
2019-01-24T04:23:09.901Z,996.17
2019-01-24T04:24:09.893Z,996.17
2019-01-24T04:25:09.877Z,996.17
2019-01-24T04:26:09.859Z,996.16
2019-01-24T04:27:09.843Z,996.16
2019-01-24T04:28:09.833Z,996.20
2019-01-24T04:29:09.819Z,996.19
2019-01-24T04:30:09.804Z,996.24
2019-01-24T04:31:09.787Z,996.22
2019-01-24T04:32:09.775Z,996.22
2019-01-24T04:33:09.765Z,996.14
2019-01-24T04:34:09.743Z,996.13
2019-01-24T04:35:09.736Z,996.13
2019-01-24T04:36:09.722Z,996.15
2019-01-24T04:37:09.705Z,996.15
2019-01-24T04:38:09.693Z,996.19
2019-01-24T04:39:09.670Z,996.20
2019-01-24T04:40:09.657Z,996.19
2019-01-24T04:41:09.644Z,996.19
2019-01-24T04:42:09.635Z,996.18
2019-01-24T04:43:09.619Z,996.18
2019-01-24T04:44:09.611Z,996.23
2019-01-24T04:45:09.591Z,996.29
2019-01-24T04:46:09.575Z,996.24
2019-01-24T04:47:09.560Z,996.27
2019-01-24T04:48:09.550Z,996.28
2019-01-24T04:49:09.531Z,996.28
2019-01-24T04:50:09.520Z,996.23
2019-01-24T04:51:09.505Z,996.26
2019-01-24T04:52:09.491Z,996.26
2019-01-24T04:53:09.485Z,996.34
2019-01-24T04:54:09.458Z,996.33
2019-01-24T04:55:09.447Z,996.31
2019-01-24T04:56:09.435Z,996.32
2019-01-24T04:57:09.419Z,996.33
2019-01-24T04:58:09.404Z,996.36
2019-01-24T04:59:09.392Z,996.37
2019-01-24T05:00:09.377Z,996.36
2019-01-24T05:01:09.358Z,996.39
2019-01-24T05:02:09.346Z,996.39
2019-01-24T05:03:09.334Z,996.42
2019-01-24T05:04:09.319Z,996.40
2019-01-24T05:05:09.306Z,996.40
2019-01-24T05:06:09.288Z,996.45
2019-01-24T05:07:09.273Z,996.43
2019-01-24T05:08:09.265Z,996.42
2019-01-24T05:09:09.254Z,996.40
2019-01-24T05:10:09.236Z,996.44
2019-01-24T05:11:09.216Z,996.44
2019-01-24T05:12:09.205Z,996.46
2019-01-24T05:13:09.193Z,996.42
2019-01-24T05:14:09.183Z,996.42
2019-01-24T05:15:09.169Z,996.42
2019-01-24T05:16:09.147Z,996.47
2019-01-24T05:17:09.142Z,996.49
2019-01-24T05:18:09.121Z,996.47
2019-01-24T05:19:09.119Z,996.52
2019-01-24T05:20:09.091Z,996.54
2019-01-24T05:21:09.071Z,996.52
2019-01-24T05:22:09.062Z,996.50
2019-01-24T05:23:09.046Z,996.54
2019-01-24T05:24:09.034Z,996.53
2019-01-24T05:25:09.018Z,996.51
2019-01-24T05:26:09.005Z,996.57
2019-01-24T05:27:08.991Z,996.60
2019-01-24T05:28:08.973Z,996.54
2019-01-24T05:29:08.959Z,996.60
2019-01-24T05:30:08.943Z,996.58
2019-01-24T05:31:08.933Z,996.54
2019-01-24T05:32:08.926Z,996.62
2019-01-24T05:33:08.916Z,996.63
2019-01-24T05:34:08.888Z,996.62
2019-01-24T05:35:08.879Z,996.71
2019-01-24T05:36:08.860Z,996.69
2019-01-24T05:37:08.852Z,996.74
2019-01-24T05:38:08.832Z,996.77
2019-01-24T05:39:08.893Z,996.78
2019-01-24T05:40:08.842Z,996.81
2019-01-24T05:41:08.788Z,996.84
2019-01-24T05:42:08.771Z,996.84
2019-01-24T05:43:08.758Z,996.80
2019-01-24T05:44:08.743Z,996.82
2019-01-24T05:45:08.755Z,996.88
2019-01-24T05:46:08.717Z,996.82
2019-01-24T05:47:08.701Z,996.88
2019-01-24T05:48:08.684Z,996.89
2019-01-24T05:49:08.676Z,996.90
2019-01-24T05:50:08.667Z,996.91
2019-01-24T05:51:08.689Z,996.95
2019-01-24T05:52:08.630Z,996.97
2019-01-24T05:53:08.617Z,996.99
2019-01-24T05:54:08.599Z,997.03
2019-01-24T05:55:08.592Z,997.02
2019-01-24T05:56:08.573Z,997.11
2019-01-24T05:57:08.557Z,997.12
2019-01-24T05:58:08.542Z,997.10
2019-01-24T05:59:08.526Z,997.15
2019-01-24T06:00:08.515Z,997.17
2019-01-24T06:01:08.497Z,997.18
2019-01-24T06:02:08.483Z,997.18
2019-01-24T06:03:08.470Z,997.24
2019-01-24T06:04:08.450Z,997.22
2019-01-24T06:05:08.441Z,997.22
2019-01-24T06:06:08.422Z,997.28
2019-01-24T06:07:08.413Z,997.29
2019-01-24T06:08:08.396Z,997.30
2019-01-24T06:09:08.379Z,997.32
2019-01-24T06:10:08.368Z,997.35
2019-01-24T06:11:08.353Z,997.35
2019-01-24T06:12:08.339Z,997.34
2019-01-24T06:13:08.327Z,997.40
2019-01-24T06:14:08.309Z,997.41
2019-01-24T06:15:08.291Z,997.45
2019-01-24T06:16:08.280Z,997.47
2019-01-24T06:17:08.267Z,997.48
2019-01-24T06:18:08.255Z,997.45
2019-01-24T06:19:08.234Z,997.52
2019-01-24T06:20:08.222Z,997.51
2019-01-24T06:21:08.204Z,997.52
2019-01-24T06:22:08.199Z,997.52
2019-01-24T06:23:08.179Z,997.57
2019-01-24T06:24:08.164Z,997.59
2019-01-24T06:25:08.151Z,997.61
2019-01-24T06:26:08.129Z,997.62
2019-01-24T06:27:08.124Z,997.62
2019-01-24T06:28:08.103Z,997.65
2019-01-24T06:29:08.090Z,997.58
2019-01-24T06:30:08.076Z,997.60
2019-01-24T06:31:08.055Z,997.64
2019-01-24T06:32:08.086Z,997.64
2019-01-24T06:33:08.034Z,997.64
2019-01-24T06:34:08.015Z,997.67
2019-01-24T06:35:08.000Z,997.66
2019-01-24T06:36:07.988Z,997.69
2019-01-24T06:37:07.976Z,997.71
2019-01-24T06:38:07.956Z,997.74
2019-01-24T06:39:07.948Z,997.72
2019-01-24T06:40:07.935Z,997.72
2019-01-24T06:41:07.909Z,997.71
2019-01-24T06:42:07.902Z,997.81
2019-01-24T06:43:07.885Z,997.75
2019-01-24T06:44:07.872Z,997.78
2019-01-24T06:45:07.860Z,997.78
2019-01-24T06:46:07.839Z,997.77
2019-01-24T06:47:07.830Z,997.82
2019-01-24T06:48:07.811Z,997.78
2019-01-24T06:49:07.802Z,997.78
2019-01-24T06:50:07.785Z,997.79
2019-01-24T06:51:07.769Z,997.79
2019-01-24T06:52:07.762Z,997.78
2019-01-24T06:53:07.742Z,997.84
2019-01-24T06:54:07.725Z,997.78
2019-01-24T06:55:07.717Z,997.78
2019-01-24T06:56:07.700Z,997.77
2019-01-24T06:57:07.686Z,997.82
2019-01-24T06:58:07.671Z,997.83
2019-01-24T06:59:07.652Z,997.85
2019-01-24T07:00:07.640Z,997.87
2019-01-24T07:01:07.630Z,997.88
2019-01-24T07:02:07.612Z,997.89
2019-01-24T07:03:07.598Z,997.92
2019-01-24T07:04:07.586Z,997.95
2019-01-24T07:05:07.569Z,998.00
2019-01-24T07:06:07.551Z,998.03
2019-01-24T07:07:07.542Z,998.06
2019-01-24T07:08:07.526Z,998.06
2019-01-24T07:09:07.511Z,998.11
2019-01-24T07:10:07.494Z,998.15
2019-01-24T07:11:07.481Z,998.15
2019-01-24T07:12:07.466Z,998.16
2019-01-24T07:13:07.456Z,998.17
2019-01-24T07:14:07.454Z,998.20
2019-01-24T07:15:07.423Z,998.26
2019-01-24T07:16:07.416Z,998.21
2019-01-24T07:17:07.391Z,998.24
2019-01-24T07:18:07.386Z,998.24
2019-01-24T07:19:07.367Z,998.26
2019-01-24T07:20:07.364Z,998.24
2019-01-24T07:21:07.336Z,998.20
2019-01-24T07:22:07.330Z,998.25
2019-01-24T07:23:07.312Z,998.21
2019-01-24T07:24:07.294Z,998.20
2019-01-24T07:25:07.278Z,998.19
2019-01-24T07:26:07.265Z,998.18
2019-01-24T07:27:07.252Z,998.14
2019-01-24T07:28:07.233Z,998.18
2019-01-24T07:29:07.228Z,998.19
2019-01-24T07:30:07.208Z,998.24
2019-01-24T07:31:07.196Z,998.26
2019-01-24T07:32:07.196Z,998.24
2019-01-24T07:33:07.167Z,998.23
2019-01-24T07:34:07.150Z,998.22
2019-01-24T07:35:07.131Z,998.25
2019-01-24T07:36:07.119Z,998.29
2019-01-24T07:37:07.106Z,998.27
2019-01-24T07:38:07.093Z,998.31
2019-01-24T07:39:07.079Z,998.36
2019-01-24T07:40:07.068Z,998.33
2019-01-24T07:41:07.044Z,998.32
2019-01-24T07:42:07.032Z,998.33
2019-01-24T07:43:07.026Z,998.36
2019-01-24T07:44:07.002Z,998.40
2019-01-24T07:45:06.992Z,998.44
2019-01-24T07:46:06.977Z,998.43
2019-01-24T07:47:06.966Z,998.47
2019-01-24T07:48:06.952Z,998.48
2019-01-24T07:49:06.929Z,998.50
2019-01-24T07:50:06.924Z,998.50
2019-01-24T07:51:06.908Z,998.52
2019-01-24T07:52:06.892Z,998.55
2019-01-24T07:53:06.874Z,998.55
2019-01-24T07:54:06.859Z,998.54
2019-01-24T07:55:06.844Z,998.53
2019-01-24T07:56:06.837Z,998.55
2019-01-24T07:57:06.818Z,998.56
2019-01-24T07:58:06.804Z,998.56
2019-01-24T07:59:06.781Z,998.60
2019-01-24T08:00:06.776Z,998.61
2019-01-24T08:01:06.757Z,998.61
2019-01-24T08:02:06.743Z,998.61
2019-01-24T08:03:06.728Z,998.61
2019-01-24T08:04:06.720Z,998.62
2019-01-24T08:05:06.702Z,998.62
2019-01-24T08:06:09.223Z,998.63
2019-01-24T08:07:06.669Z,998.62
2019-01-24T08:08:06.661Z,998.68
2019-01-24T08:09:06.665Z,998.62
2019-01-24T08:10:06.630Z,998.63
2019-01-24T08:11:06.608Z,998.67
2019-01-24T08:12:06.601Z,998.65
2019-01-24T08:13:06.596Z,998.64
2019-01-24T08:14:06.575Z,998.67
2019-01-24T08:15:06.554Z,998.68
2019-01-24T08:16:06.539Z,998.68
2019-01-24T08:17:06.527Z,998.73
2019-01-24T08:18:06.513Z,998.68
2019-01-24T08:19:06.501Z,998.67
2019-01-24T08:20:06.484Z,998.73
2019-01-24T08:21:06.467Z,998.74
2019-01-24T08:22:06.454Z,998.74
2019-01-24T08:23:06.492Z,998.76
2019-01-24T08:24:06.424Z,998.71
2019-01-24T08:25:06.414Z,998.70
2019-01-24T08:26:06.394Z,998.75
2019-01-24T08:27:06.383Z,998.78
2019-01-24T08:28:06.368Z,998.80
2019-01-24T08:29:06.355Z,998.81
2019-01-24T08:30:06.344Z,998.80
2019-01-24T08:31:06.324Z,998.82
2019-01-24T08:32:06.310Z,998.84
2019-01-24T08:33:06.297Z,998.85
2019-01-24T08:34:06.279Z,998.83
2019-01-24T08:35:06.265Z,998.86
2019-01-24T08:36:06.251Z,998.88
2019-01-24T08:37:06.241Z,998.93
2019-01-24T08:38:06.225Z,998.91
2019-01-24T08:39:06.216Z,998.94
2019-01-24T08:40:06.195Z,998.92
2019-01-24T08:41:06.181Z,998.92
2019-01-24T08:42:06.164Z,998.95
2019-01-24T08:43:06.152Z,998.98
2019-01-24T08:44:06.136Z,998.99
2019-01-24T08:45:06.127Z,999.00
2019-01-24T08:46:06.112Z,999.01
2019-01-24T08:47:06.095Z,999.02
2019-01-24T08:48:06.079Z,999.07
2019-01-24T08:49:06.058Z,999.05
2019-01-24T08:50:06.054Z,999.09
2019-01-24T08:51:06.044Z,999.06
2019-01-24T08:52:06.027Z,999.09
2019-01-24T08:53:06.009Z,999.07
2019-01-24T08:54:05.994Z,999.11
2019-01-24T08:55:05.980Z,999.08
2019-01-24T08:56:05.970Z,999.08
2019-01-24T08:57:05.957Z,999.14
2019-01-24T08:58:06.081Z,999.11
2019-01-24T08:59:05.928Z,999.14
2019-01-24T09:00:05.916Z,999.20
2019-01-24T09:01:05.910Z,999.21
2019-01-24T09:02:05.879Z,999.23
2019-01-24T09:03:05.870Z,999.21
2019-01-24T09:04:05.878Z,999.26
2019-01-24T09:05:05.842Z,999.28
2019-01-24T09:06:05.826Z,999.34
2019-01-24T09:07:05.818Z,999.32
2019-01-24T09:08:05.794Z,999.29
2019-01-24T09:09:05.792Z,999.33
2019-01-24T09:10:05.770Z,999.36
2019-01-24T09:11:05.759Z,999.37
2019-01-24T09:12:05.742Z,999.35
2019-01-24T09:13:05.727Z,999.40
2019-01-24T09:14:05.710Z,999.38
2019-01-24T09:15:05.696Z,999.36
2019-01-24T09:16:05.682Z,999.40
2019-01-24T09:17:05.671Z,999.39
2019-01-24T09:18:05.663Z,999.40
2019-01-24T09:19:05.646Z,999.44
2019-01-24T09:20:05.625Z,999.43
2019-01-24T09:21:05.614Z,999.45
2019-01-24T09:22:05.598Z,999.47
2019-01-24T09:23:05.611Z,999.41
2019-01-24T09:24:05.569Z,999.53
2019-01-24T09:25:05.557Z,999.55
2019-01-24T09:26:05.541Z,999.54
2019-01-24T09:27:05.531Z,999.57
2019-01-24T09:28:05.526Z,999.60
2019-01-24T09:29:05.498Z,999.62
2019-01-24T09:30:05.489Z,999.61
2019-01-24T09:31:05.473Z,999.66
2019-01-24T09:32:05.458Z,999.66
2019-01-24T09:33:05.451Z,999.65
2019-01-24T09:34:05.430Z,999.69
2019-01-24T09:35:05.424Z,999.72
2019-01-24T09:36:05.397Z,999.70
2019-01-24T09:37:05.392Z,999.74
2019-01-24T09:38:05.372Z,999.64
2019-01-24T09:39:05.359Z,999.69
2019-01-24T09:40:05.348Z,999.67
2019-01-24T09:41:05.333Z,999.72
2019-01-24T09:42:05.317Z,999.75
2019-01-24T09:43:05.306Z,999.75
2019-01-24T09:44:05.288Z,999.80
2019-01-24T09:45:05.281Z,999.78
2019-01-24T09:46:05.268Z,999.81
2019-01-24T09:47:05.248Z,999.83
2019-01-24T09:48:05.232Z,999.86
2019-01-24T09:49:05.218Z,999.86
2019-01-24T09:50:05.204Z,999.84
2019-01-24T09:51:05.193Z,999.89
2019-01-24T09:52:05.179Z,999.85
2019-01-24T09:53:05.167Z,999.86
2019-01-24T09:54:05.146Z,999.91
2019-01-24T09:55:05.135Z,999.93
2019-01-24T09:56:05.129Z,999.97
2019-01-24T09:57:05.110Z,999.96
2019-01-24T09:58:05.094Z,999.96
2019-01-24T09:59:05.079Z,999.96
2019-01-24T10:00:05.074Z,999.94
2019-01-24T10:01:05.049Z,1000.00
2019-01-24T10:02:05.040Z,1000.01
2019-01-24T10:03:05.030Z,1000.03
2019-01-24T10:04:05.014Z,1000.08
2019-01-24T10:05:04.998Z,1000.08
2019-01-24T10:06:04.984Z,1000.07
2019-01-24T10:07:04.968Z,1000.09
2019-01-24T10:08:04.953Z,1000.12
2019-01-24T10:09:04.939Z,1000.09
2019-01-24T10:10:04.928Z,1000.10
2019-01-24T10:11:04.910Z,1000.08
2019-01-24T10:12:04.901Z,1000.07
2019-01-24T10:13:04.889Z,1000.13
2019-01-24T10:14:04.874Z,1000.13
2019-01-24T10:15:04.853Z,1000.08
2019-01-24T10:16:04.843Z,1000.16
2019-01-24T10:17:04.831Z,1000.16
2019-01-24T10:18:04.825Z,1000.11
2019-01-24T10:19:04.809Z,1000.17
2019-01-24T10:20:04.790Z,1000.21
2019-01-24T10:21:04.777Z,1000.20
2019-01-24T10:22:04.758Z,1000.20
2019-01-24T10:23:04.746Z,1000.21
2019-01-24T10:24:04.737Z,1000.23
2019-01-24T10:25:04.721Z,1000.24
2019-01-24T10:26:04.705Z,1000.24
2019-01-24T10:27:04.696Z,1000.28
2019-01-24T10:28:04.680Z,1000.26
2019-01-24T10:29:04.665Z,1000.26
2019-01-24T10:30:04.648Z,1000.23
2019-01-24T10:31:04.637Z,1000.24
2019-01-24T10:32:04.627Z,1000.28
2019-01-24T10:33:04.647Z,1000.22
2019-01-24T10:34:04.599Z,1000.24
2019-01-24T10:35:04.582Z,1000.17
2019-01-24T10:36:04.566Z,1000.15
2019-01-24T10:37:04.558Z,1000.21
2019-01-24T10:38:04.545Z,1000.18
2019-01-24T10:39:04.528Z,1000.17
2019-01-24T10:40:04.528Z,1000.17
2019-01-24T10:41:04.500Z,1000.18
2019-01-24T10:42:04.486Z,1000.19
2019-01-24T10:43:04.476Z,1000.18
2019-01-24T10:44:04.460Z,1000.15
2019-01-24T10:45:04.451Z,1000.17
2019-01-24T10:46:04.435Z,1000.15
2019-01-24T10:47:04.421Z,1000.18
2019-01-24T10:48:04.407Z,1000.19
2019-01-24T10:49:04.391Z,1000.12
2019-01-24T10:50:04.380Z,1000.14
2019-01-24T10:51:04.368Z,1000.14
2019-01-24T10:52:04.352Z,1000.18
2019-01-24T10:53:04.340Z,1000.15
2019-01-24T10:54:04.327Z,1000.18
2019-01-24T10:55:04.312Z,1000.15
2019-01-24T10:56:04.296Z,1000.12
2019-01-24T10:57:04.357Z,1000.14
2019-01-24T10:58:04.272Z,1000.15
2019-01-24T10:59:04.257Z,1000.16
2019-01-24T11:00:04.243Z,1000.17
2019-01-24T11:01:04.228Z,1000.18
2019-01-24T11:02:04.217Z,1000.20
2019-01-24T11:03:04.202Z,1000.18
2019-01-24T11:04:04.191Z,1000.19
2019-01-24T11:05:04.181Z,1000.15
2019-01-24T11:06:04.161Z,1000.13
2019-01-24T11:07:04.150Z,1000.12
2019-01-24T11:08:04.136Z,1000.12
2019-01-24T11:09:04.124Z,1000.12
2019-01-24T11:10:04.109Z,1000.18
2019-01-24T11:11:04.098Z,1000.15
2019-01-24T11:12:04.089Z,1000.08
2019-01-24T11:13:04.066Z,1000.08
2019-01-24T11:14:04.056Z,1000.10
2019-01-24T11:15:04.041Z,1000.08
2019-01-24T11:16:04.027Z,1000.11
2019-01-24T11:17:04.022Z,1000.11
2019-01-24T11:18:04.007Z,1000.14
2019-01-24T11:19:03.989Z,1000.09
2019-01-24T11:20:03.977Z,1000.10
2019-01-24T11:21:03.964Z,1000.05
2019-01-24T11:22:03.952Z,1000.06
2019-01-24T11:23:03.938Z,1000.07
2019-01-24T11:24:03.922Z,1000.07
2019-01-24T11:25:03.909Z,1000.08
2019-01-24T11:26:03.898Z,1000.06
2019-01-24T11:27:03.883Z,1000.10
2019-01-24T11:28:03.866Z,1000.08
2019-01-24T11:29:03.855Z,1000.05
2019-01-24T11:30:03.846Z,1000.07
2019-01-24T11:31:03.831Z,1000.08
2019-01-24T11:32:03.817Z,1000.08
2019-01-24T11:33:03.811Z,1000.06
2019-01-24T11:34:03.791Z,1000.09
2019-01-24T11:35:03.774Z,1000.07
2019-01-24T11:36:03.781Z,1000.08
2019-01-24T11:37:03.753Z,1000.07
2019-01-24T11:38:03.734Z,1000.05
2019-01-24T11:39:03.722Z,1000.01
2019-01-24T11:40:03.717Z,1000.00
2019-01-24T11:41:03.691Z,1000.01
2019-01-24T11:42:03.678Z,1000.00
2019-01-24T11:43:03.669Z,999.96
2019-01-24T11:44:03.663Z,999.98
2019-01-24T11:45:03.651Z,999.97
2019-01-24T11:46:03.631Z,999.99
2019-01-24T11:47:03.613Z,999.97
2019-01-24T11:48:03.600Z,999.97
2019-01-24T11:49:03.591Z,999.94
2019-01-24T11:50:03.591Z,999.94
2019-01-24T11:51:03.565Z,999.93
2019-01-24T11:52:03.548Z,999.95
2019-01-24T11:53:03.533Z,999.91
2019-01-24T11:54:03.521Z,999.91
2019-01-24T11:55:03.515Z,999.99
2019-01-24T11:56:03.498Z,999.93
2019-01-24T11:57:03.479Z,999.92
2019-01-24T11:58:03.471Z,999.92
2019-01-24T11:59:03.461Z,999.90
2019-01-24T12:00:03.446Z,999.92
2019-01-24T12:01:03.458Z,999.94
2019-01-24T12:02:03.414Z,999.94
2019-01-24T12:03:03.404Z,999.91
2019-01-24T12:04:03.396Z,999.89
2019-01-24T12:05:03.380Z,999.91
2019-01-24T12:06:03.363Z,999.90
2019-01-24T12:07:04.216Z,999.94
2019-01-24T12:08:03.337Z,999.90
2019-01-24T12:09:03.333Z,999.92
2019-01-24T12:10:03.312Z,999.88
2019-01-24T12:11:03.308Z,999.86
2019-01-24T12:12:03.288Z,999.86
2019-01-24T12:13:03.275Z,999.85
2019-01-24T12:14:03.260Z,999.86
2019-01-24T12:15:03.242Z,999.86
2019-01-24T12:16:03.237Z,999.86
2019-01-24T12:17:03.230Z,999.86
2019-01-24T12:18:03.207Z,999.83
2019-01-24T12:19:03.193Z,999.83
2019-01-24T12:20:03.182Z,999.82
2019-01-24T12:21:03.168Z,999.84
2019-01-24T12:22:03.151Z,999.82
2019-01-24T12:23:03.143Z,999.79
2019-01-24T12:24:03.132Z,999.81
2019-01-24T12:25:03.115Z,999.77